Time;durP1;ratioP1;P1;durP2;ratioP2;P2;SDS_P1;SDS_P2;PMS_P1;PMS_P2;Temp;Humidity;BMP_temperature;BMP_pressure;BME280_temperature;BME280_humidity;BME280_pressure;Samples;Min_cycle;Max_cycle;Signal;HPM_P1;HPM_P2
2022/12/31 00:09:06;;;;;;;22.70;11.98;;;;;;;3.79;74.56;99862.41;30979043;28;96992;-71
2022/12/31 00:24:07;;;;;;;21.05;10.50;;;;;;;4.21;74.87;99849.03;30977637;28;97511;-71
2022/12/31 00:39:09;;;;;;;17.88;9.68;;;;;;;4.65;74.93;99835.41;30976746;28;96979;-71
2022/12/31 00:54:09;;;;;;;13.00;7.63;;;;;;;5.18;74.43;99864.91;30982306;28;97154;-69
2022/12/31 01:09:12;;;;;;;10.00;6.10;;;;;;;5.85;73.71;99862.13;30995806;28;96811;-71
2022/12/31 01:24:13;;;;;;;10.55;5.85;;;;;;;6.27;73.57;99864.25;30994956;28;96646;-71
2022/12/31 01:39:13;;;;;;;10.05;5.20;;;;;;;6.53;72.52;99845.78;30993776;28;96860;-71
2022/12/31 01:54:17;;;;;;;9.77;5.68;;;;;;;6.72;71.94;99865.97;30991728;28;97145;-71
2022/12/31 02:09:18;;;;;;;8.02;5.07;;;;;;;6.93;72.33;99896.63;30989430;28;97096;-71
2022/12/31 02:24:37;;;;;;;7.53;4.03;;;;;;;7.10;72.11;99906.31;30989342;28;96694;-71
2022/12/31 02:39:39;;;;;;;8.98;4.40;;;;;;;7.20;71.67;99878.91;30988112;28;96715;-71
2022/12/31 02:54:45;;;;;;;7.07;3.42;;;;;;;7.24;71.19;99912.03;30985939;28;97296;-71
2022/12/31 03:09:46;;;;;;;4.15;2.80;;;;;;;7.33;72.54;99905.81;30984921;28;97282;-71
2022/12/31 03:40:08;;;;;;;5.20;2.60;;;;;;;7.68;72.58;99941.16;30981950;28;96673;-71
2022/12/31 03:55:09;;;;;;;5.43;2.73;;;;;;;7.76;72.94;99962.41;30979949;28;97335;-71
2022/12/31 04:10:12;;;;;;;4.43;2.40;;;;;;;7.76;72.11;99925.28;30979028;28;97108;-71
2022/12/31 04:25:12;;;;;;;5.43;2.47;;;;;;;7.75;72.84;99925.41;30978155;28;97394;-71
2022/12/31 04:40:13;;;;;;;5.93;2.47;;;;;;;7.96;73.06;99906.47;30997567;28;96700;-71
2022/12/31 04:55:13;;;;;;;3.72;2.22;;;;;;;8.00;72.61;99944.94;30996607;28;96619;-71
2022/12/31 05:10:13;;;;;;;4.35;2.30;;;;;;;7.99;73.04;99923.88;30995281;28;96695;-71
2022/12/31 05:25:14;;;;;;;4.18;2.20;;;;;;;7.95;72.64;99912.75;30993461;28;97374;-71
2022/12/31 05:40:14;;;;;;;3.30;2.10;;;;;;;7.85;73.09;99927.97;30993048;28;96656;-71
2022/12/31 05:55:15;;;;;;;5.10;2.10;;;;;;;8.02;73.89;99936.81;30990553;28;96646;-71
2022/12/31 06:10:15;;;;;;;3.97;2.15;;;;;;;7.96;74.15;99944.41;30989815;28;96931;-71
2022/12/31 06:25:16;;;;;;;2.90;1.88;;;;;;;7.99;74.69;99937.97;30986663;28;96746;-71
2022/12/31 06:40:16;;;;;;;2.95;1.90;;;;;;;8.09;75.09;99954.59;30986030;28;97008;-71
2022/12/31 06:55:17;;;;;;;2.67;1.65;;;;;;;8.18;75.12;99951.97;30983565;28;96862;-71
2022/12/31 07:10:26;;;;;;;2.72;1.83;;;;;;;8.42;75.63;99970.63;30984253;28;97173;-71
2022/12/31 07:25:27;;;;;;;2.27;1.37;;;;;;;8.65;75.47;99988.63;30979843;28;97465;-71
2022/12/31 07:40:45;;;;;;;2.28;1.70;;;;;;;8.90;75.14;99978.03;30979848;28;96829;-71
2022/12/31 07:55:46;;;;;;;1.93;1.47;;;;;;;9.15;75.43;99979.72;30978202;28;96552;-71
2022/12/31 08:10:58;;;;;;;3.13;1.63;;;;;;;9.47;75.15;100007.31;30976092;28;97148;-71
2022/12/31 08:26:25;;;;;;;3.47;1.80;;;;;;;9.70;74.59;99998.59;30976482;28;96697;-71
2022/12/31 08:41:41;;;;;;;3.93;1.63;;;;;;;10.08;73.63;100004.16;30974331;28;96727;-70
2022/12/31 08:56:50;;;;;;;2.60;1.73;;;;;;;11.11;72.26;100002.31;30973775;28;96814;-71
2022/12/31 09:12:07;;;;;;;1.87;1.10;;;;;;;14.22;65.59;99970.59;30972205;28;97619;-69
2022/12/31 09:27:26;;;;;;;2.43;1.30;;;;;;;12.74;66.69;99999.06;30992103;28;97064;-69
2022/12/31 09:42:56;;;;;;;4.50;1.90;;;;;;;14.01;66.46;99995.63;30990142;28;96820;-70
2022/12/31 09:58:11;;;;;;;1.97;1.40;;;;;;;16.84;62.18;99981.13;30989881;28;96799;-69
2022/12/31 10:13:12;;;;;;;2.27;1.30;;;;;;;16.74;59.42;99987.81;30986288;28;96704;-69
2022/12/31 10:28:48;;;;;;;2.25;0.90;;;;;;;16.29;57.99;99981.63;30984801;28;96988;-67
2022/12/31 10:43:54;;;;;;;2.03;1.23;;;;;;;15.39;59.71;99940.91;30984133;28;97682;-68
2022/12/31 10:59:13;;;;;;;2.37;1.50;;;;;;;17.32;57.18;99956.38;30982249;28;99402;-68
2022/12/31 11:14:16;;;;;;;2.80;1.20;;;;;;;18.23;54.26;99962.09;30981631;28;97239;-68
2022/12/31 11:29:37;;;;;;;4.27;1.13;;;;;;;19.76;49.71;99938.34;30980641;28;96690;-69
2022/12/31 11:44:52;;;;;;;2.93;1.00;;;;;;;20.95;47.29;99927.97;30978512;28;96778;-68
2022/12/31 11:59:57;;;;;;;2.63;1.20;;;;;;;24.06;40.09;99909.19;30977707;28;97365;-67
2022/12/31 12:14:58;;;;;;;3.53;1.37;;;;;;;24.95;37.50;99900.94;30976492;28;96721;-67
2022/12/31 12:30:08;;;;;;;2.55;1.10;;;;;;;23.66;37.55;99911.44;30974644;28;96728;-68
2022/12/31 12:45:17;;;;;;;1.70;1.00;;;;;;;23.75;38.16;99942.47;30974088;28;96777;-70
2022/12/31 13:00:28;;;;;;;2.30;1.30;;;;;;;18.96;44.77;99926.25;30995531;28;97653;-71
2022/12/31 13:15:48;;;;;;;2.83;1.83;;;;;;;16.99;49.68;99940.50;30991780;28;96657;-71
2022/12/31 13:30:53;;;;;;;6.80;3.00;;;;;;;15.81;53.52;99951.38;30992472;28;96692;-70
2022/12/31 13:46:02;;;;;;;3.77;2.17;;;;;;;15.40;55.89;99972.09;30991403;28;96666;-69
2022/12/31 14:01:21;;;;;;;2.47;1.40;;;;;;;15.12;57.44;99999.13;30987597;28;96674;-69
2022/12/31 14:16:48;;;;;;;3.03;1.57;;;;;;;15.52;57.47;99999.13;30987859;28;97012;-68
2022/12/31 14:31:48;;;;;;;3.17;1.50;;;;;;;14.88;59.38;99985.28;30987319;28;96750;-67
2022/12/31 14:47:27;;;;;;;13.77;5.10;;;;;;;14.67;60.60;99985.41;30983916;28;97350;-67
2022/12/31 15:02:30;;;;;;;3.80;1.73;;;;;;;14.49;61.49;99986.78;30932873;28;97491;-68
2022/12/31 15:17:33;;;;;;;2.90;1.50;;;;;;;14.40;61.97;99993.34;30979777;28;97373;-68
2022/12/31 15:32:44;;;;;;;3.03;1.80;;;;;;;14.46;62.56;99989.88;30980579;28;96650;-68
2022/12/31 15:47:49;;;;;;;4.53;2.03;;;;;;;14.39;62.85;100029.19;30978266;28;97809;-67
2022/12/31 16:02:53;;;;;;;3.70;1.87;;;;;;;14.37;63.15;100052.69;30976898;28;96620;-67
2022/12/31 16:18:03;;;;;;;4.10;2.23;;;;;;;14.45;63.34;100062.41;30975080;28;97415;-68
2022/12/31 16:33:12;;;;;;;5.50;2.37;;;;;;;14.52;63.41;100066.78;30972995;28;97487;-67
2022/12/31 16:48:16;;;;;;;4.17;2.03;;;;;;;14.51;63.46;100094.59;30973577;28;97056;-68
2022/12/31 17:03:22;;;;;;;4.87;2.40;;;;;;;14.41;63.41;100091.47;30972549;28;96829;-68
2022/12/31 17:18:26;;;;;;;4.70;2.20;;;;;;;14.19;63.52;100104.13;30971623;28;96728;-68
2022/12/31 17:33:28;;;;;;;3.83;2.20;;;;;;;13.86;64.16;100108.22;30974155;28;96670;-70
2022/12/31 17:48:29;;;;;;;5.97;2.37;;;;;;;13.71;65.24;100118.19;30989867;28;97382;-69
2022/12/31 18:03:29;;;;;;;5.35;2.72;;;;;;;14.07;65.28;100127.94;30988379;28;96682;-69
2022/12/31 18:18:34;;;;;;;4.63;2.45;;;;;;;14.29;64.76;100141.28;30985937;28;96678;-69
2022/12/31 18:33:35;;;;;;;5.17;1.83;;;;;;;14.41;64.25;100149.59;30985839;28;97501;-68
2022/12/31 18:48:35;;;;;;;4.18;2.42;;;;;;;14.55;63.71;100144.09;30983526;28;97394;-70
2022/12/31 19:03:35;;;;;;;2.95;1.60;;;;;;;14.50;63.26;100132.31;30983040;28;97487;-68
2022/12/31 19:18:36;;;;;;;3.72;1.75;;;;;;;14.14;63.65;100134.16;30980264;28;96797;-69
2022/12/31 19:33:37;;;;;;;3.65;1.50;;;;;;;14.01;64.16;100139.41;30979943;28;97062;-70
2022/12/31 19:48:37;;;;;;;8.77;3.00;;;;;;;13.82;64.31;100141.75;30978250;28;97174;-69
2022/12/31 20:03:37;;;;;;;10.10;4.13;;;;;;;13.46;64.71;100150.66;30977008;28;96764;-70
2022/12/31 20:18:39;;;;;;;8.20;4.10;;;;;;;13.17;65.30;100149.69;30976890;28;96774;-69
2022/12/31 20:33:40;;;;;;;7.17;3.60;;;;;;;12.85;65.97;100159.00;30975178;28;96787;-70
2022/12/31 20:48:42;;;;;;;9.97;5.37;;;;;;;12.56;66.95;100168.69;30974077;28;96775;-70
2022/12/31 21:03:44;;;;;;;6.30;4.13;;;;;;;12.29;67.66;100140.75;30973514;28;97605;-70
2022/12/31 21:18:44;;;;;;;11.43;5.80;;;;;;;12.06;68.30;100159.50;30990824;28;96828;-70
2022/12/31 21:33:46;;;;;;;12.32;6.63;;;;;;;11.99;68.47;100141.50;30992210;28;97453;-70
2022/12/31 21:48:46;;;;;;;8.53;3.80;;;;;;;12.18;68.54;100139.34;30991596;28;97388;-68
2022/12/31 22:03:47;;;;;;;5.82;2.95;;;;;;;12.62;67.77;100151.06;30990695;28;96653;-67
2022/12/31 22:18:48;;;;;;;9.00;4.13;;;;;;;12.43;67.41;100152.44;30987420;28;96697;-69
2022/12/31 22:33:48;;;;;;;13.50;5.40;;;;;;;12.24;67.57;100153.81;30988089;28;96762;-69
2022/12/31 22:48:51;;;;;;;7.97;3.70;;;;;;;12.00;68.39;100147.66;30986207;28;97197;-70
2022/12/31 23:03:53;;;;;;;15.13;7.17;;;;;;;12.37;68.09;100148.69;30984277;28;97462;-71
2022/12/31 23:34:12;;;;;;;14.27;10.40;;;;;;;12.33;66.18;100126.84;30978806;28;96771;-71
2022/12/31 23:49:13;;;;;;;16.30;10.50;;;;;;;12.14;66.55;100138.06;30980320;28;97338;-71
